createdAt,value
2022-08-03T00:01:49.076Z,101078.28
2022-08-03T00:04:15.614Z,101086.78
2022-08-03T00:06:42.121Z,101073.78
2022-08-03T00:09:09.884Z,101074.78
2022-08-03T00:11:36.951Z,101077.78
2022-08-03T00:14:07.933Z,101076.34
2022-08-03T00:16:34.806Z,101082.22
2022-08-03T00:19:02.324Z,101066.63
2022-08-03T00:21:29.298Z,101078.19
2022-08-03T00:23:56.604Z,101069.13
2022-08-03T00:26:23.241Z,101070.13
2022-08-03T00:28:50.268Z,101074.63
2022-08-03T00:31:16.832Z,101073.34
2022-08-03T00:33:58.236Z,101059.03
2022-08-03T00:36:29.759Z,101066.00
2022-08-03T00:38:56.466Z,101067.81
2022-08-03T00:41:23.158Z,101062.72
2022-08-03T00:43:50.021Z,101060.69
2022-08-03T00:46:21.277Z,101032.91
2022-08-03T00:48:51.880Z,101053.53
2022-08-03T00:51:18.859Z,101061.97
2022-08-03T00:53:45.995Z,101055.00
2022-08-03T00:56:17.235Z,101057.09
2022-08-03T00:58:46.044Z,101057.47
2022-08-03T01:01:13.067Z,101057.19
2022-08-03T01:03:40.064Z,101053.28
2022-08-03T01:06:20.056Z,101048.03
2022-08-03T01:08:52.302Z,101056.09
2022-08-03T01:12:00.866Z,101055.16
2022-08-03T01:14:34.151Z,101055.09
2022-08-03T01:17:11.192Z,101044.16
2022-08-03T01:19:57.948Z,101049.81
2022-08-03T01:23:02.074Z,101054.38
2022-08-03T01:25:46.250Z,101049.59
2022-08-03T01:28:30.046Z,101049.22
2022-08-03T01:31:01.579Z,101045.91
2022-08-03T01:33:42.217Z,101032.59
2022-08-03T01:36:18.084Z,101047.28
2022-08-03T01:38:49.482Z,101045.44
2022-08-03T01:41:20.241Z,101047.97
2022-08-03T01:44:26.757Z,101047.50
2022-08-03T01:46:37.504Z,101029.53
2022-08-03T01:49:09.649Z,101046.56
2022-08-03T01:51:57.906Z,101035.38
2022-08-03T01:54:26.266Z,101049.75
2022-08-03T01:56:54.809Z,101049.75
2022-08-03T01:59:22.959Z,101037.75
2022-08-03T02:02:15.282Z,101039.88
2022-08-03T02:04:39.131Z,101044.97
2022-08-03T02:07:06.887Z,101041.03
2022-08-03T02:09:36.977Z,101045.97
2022-08-03T02:12:04.372Z,101041.84
2022-08-03T02:14:31.733Z,101045.03
2022-08-03T02:16:59.199Z,101036.75
2022-08-03T02:19:30.332Z,101043.53
2022-08-03T02:22:01.010Z,101031.44
2022-08-03T02:24:29.913Z,101038.38
2022-08-03T02:26:57.008Z,101041.50
2022-08-03T02:29:40.071Z,101036.84
2022-08-03T02:32:10.658Z,101036.31
2022-08-03T02:34:39.901Z,101030.63
2022-08-03T02:37:08.626Z,101026.00
2022-08-03T02:39:36.325Z,101034.78
2022-08-03T02:42:03.357Z,101027.34
2022-08-03T02:44:33.142Z,101028.88
2022-08-03T02:47:07.459Z,101033.03
2022-08-03T02:49:50.041Z,101033.56
2022-08-03T02:52:19.707Z,101033.88
2022-08-03T02:54:48.308Z,100982.59
2022-08-03T02:57:15.274Z,101030.47
2022-08-03T02:59:43.526Z,101029.16
2022-08-03T03:02:10.874Z,101022.41
2022-08-03T03:04:37.923Z,101028.41
2022-08-03T03:07:14.390Z,101025.94
2022-08-03T03:09:43.396Z,101033.38
2022-08-03T03:12:12.501Z,101039.69
2022-08-03T03:14:39.852Z,101037.38
2022-08-03T03:17:11.635Z,101016.09
2022-08-03T03:19:40.834Z,101032.97
2022-08-03T03:22:08.294Z,101030.66
2022-08-03T03:24:36.295Z,101031.16
2022-08-03T03:27:03.924Z,101034.81
2022-08-03T03:29:32.204Z,101029.41
2022-08-03T03:32:08.405Z,101029.56
2022-08-03T03:34:39.084Z,101041.53
2022-08-03T03:37:05.981Z,101023.56
2022-08-03T03:39:32.648Z,101046.69
2022-08-03T03:42:00.385Z,101051.38
2022-08-03T03:44:28.929Z,101050.91
2022-08-03T03:46:58.884Z,101043.81
2022-08-03T03:49:26.141Z,101044.19
2022-08-03T03:51:54.893Z,101040.84
2022-08-03T03:54:21.639Z,101041.53
2022-08-03T03:56:48.352Z,101050.47
2022-08-03T03:59:14.957Z,101041.84
2022-08-03T04:01:41.758Z,101046.31
2022-08-03T04:04:26.534Z,101034.59
2022-08-03T04:07:11.453Z,101045.66
2022-08-03T04:10:14.722Z,101045.97
2022-08-03T04:12:50.615Z,101048.31
2022-08-03T04:15:21.438Z,101042.84
2022-08-03T04:17:51.015Z,101044.84
2022-08-03T04:20:20.889Z,101045.69
2022-08-03T04:22:51.275Z,101020.03
2022-08-03T04:25:19.453Z,101042.72
2022-08-03T04:28:19.737Z,101043.06
2022-08-03T04:30:38.788Z,101036.25
2022-08-03T04:33:06.768Z,101044.19
2022-08-03T04:36:01.473Z,101049.66
2022-08-03T04:38:25.616Z,101050.50
2022-08-03T04:40:53.104Z,101056.44
2022-08-03T04:43:21.114Z,101054.63
2022-08-03T04:45:50.171Z,101052.16
2022-08-03T04:48:17.493Z,101063.22
2022-08-03T04:50:44.601Z,101054.28
2022-08-03T04:53:11.163Z,101063.38
2022-08-03T04:55:37.766Z,101062.06
2022-08-03T04:58:06.417Z,101038.56
2022-08-03T05:00:33.090Z,101045.34
2022-08-03T05:02:59.607Z,101063.22
2022-08-03T05:05:34.676Z,101065.66
2022-08-03T05:08:13.918Z,101058.06
2022-08-03T05:10:40.672Z,101049.47
2022-08-03T05:13:11.975Z,101062.78
2022-08-03T05:15:43.260Z,101071.38
2022-08-03T05:18:14.001Z,101038.13
2022-08-03T05:20:41.221Z,101075.94
2022-08-03T05:23:07.741Z,101076.72
2022-08-03T05:25:34.230Z,101081.00
2022-08-03T05:28:00.732Z,101074.50
2022-08-03T05:30:33.436Z,101076.38
2022-08-03T05:33:01.540Z,101071.28
2022-08-03T05:35:57.579Z,101071.84
2022-08-03T05:38:23.866Z,101071.13
2022-08-03T05:40:56.948Z,101060.72
2022-08-03T05:43:25.461Z,101067.31
2022-08-03T05:46:11.558Z,101059.81
2022-08-03T05:48:38.632Z,101063.38
2022-08-03T05:51:07.569Z,101066.00
2022-08-03T05:53:34.491Z,101058.94
2022-08-03T05:56:13.110Z,101070.78
2022-08-03T05:58:46.971Z,101044.50
2022-08-03T06:01:14.339Z,101064.16
2022-08-03T06:03:41.198Z,101062.41
2022-08-03T06:06:07.773Z,101061.41
2022-08-03T06:08:34.805Z,101062.28
2022-08-03T06:11:01.330Z,101066.56
2022-08-03T06:13:27.854Z,101067.75
2022-08-03T06:15:54.350Z,101065.16
2022-08-03T06:18:20.951Z,101076.78
2022-08-03T06:20:49.365Z,101080.78
2022-08-03T06:23:17.959Z,101082.66
2022-08-03T06:25:45.014Z,101080.63
2022-08-03T06:28:35.329Z,101073.66
2022-08-03T06:31:00.917Z,101074.88
2022-08-03T06:34:30.324Z,101080.72
2022-08-03T06:36:14.086Z,101083.06
2022-08-03T06:38:40.539Z,101083.44
2022-08-03T06:41:07.219Z,101084.09
2022-08-03T06:43:37.467Z,101089.19
2022-08-03T06:46:05.549Z,101087.13
2022-08-03T06:48:32.436Z,101091.06
2022-08-03T06:50:59.211Z,101083.94
2022-08-03T06:53:25.725Z,101092.84
2022-08-03T06:55:54.949Z,101082.00
2022-08-03T06:58:22.055Z,101086.41
2022-08-03T07:00:48.544Z,101083.59
2022-08-03T07:03:15.178Z,101098.09
2022-08-03T07:05:43.476Z,101085.22
2022-08-03T07:08:10.210Z,101082.88
2022-08-03T07:10:37.167Z,101092.84
2022-08-03T07:13:04.396Z,101093.44
2022-08-03T07:15:53.892Z,101088.28
2022-08-03T07:18:17.620Z,101090.50
2022-08-03T07:20:54.845Z,101087.19
2022-08-03T07:23:21.363Z,101095.31
2022-08-03T07:25:47.895Z,101098.19
2022-08-03T07:28:14.525Z,101093.09
2022-08-03T07:30:41.027Z,101097.94
2022-08-03T07:33:07.529Z,101090.69
2022-08-03T07:35:34.115Z,101080.56
2022-08-03T07:38:00.716Z,101096.31
2022-08-03T07:40:28.199Z,101094.81
2022-08-03T07:42:58.403Z,101090.88
2022-08-03T07:45:26.457Z,101093.63
2022-08-03T07:47:53.930Z,101095.81
2022-08-03T07:50:21.425Z,101104.69
2022-08-03T07:52:48.299Z,101098.63
2022-08-03T07:55:15.540Z,101098.34
2022-08-03T07:57:42.269Z,101089.25
2022-08-03T08:00:16.110Z,101095.53
2022-08-03T08:02:43.154Z,101082.47
2022-08-03T08:05:11.002Z,101095.13
2022-08-03T08:07:38.593Z,101091.09
2022-08-03T08:10:10.203Z,101084.03
2022-08-03T08:12:37.716Z,101079.34
2022-08-03T08:15:05.515Z,101074.28
2022-08-03T08:17:32.017Z,101082.38
2022-08-03T08:19:58.553Z,101077.84
2022-08-03T08:22:30.399Z,101079.28
2022-08-03T08:25:01.522Z,101075.53
2022-08-03T08:27:28.350Z,101068.28
2022-08-03T08:30:19.310Z,101067.88
2022-08-03T08:32:46.506Z,101059.56
2022-08-03T08:35:13.588Z,101054.53
2022-08-03T08:37:41.260Z,101075.66
2022-08-03T08:40:09.134Z,101088.41
2022-08-03T08:42:40.202Z,101085.63
2022-08-03T08:45:09.224Z,101080.75
2022-08-03T08:47:51.090Z,101079.78
2022-08-03T08:50:27.851Z,101080.38
2022-08-03T08:52:59.855Z,101078.41
2022-08-03T08:55:26.727Z,101082.00
2022-08-03T08:57:59.373Z,101076.03
2022-08-03T09:00:26.051Z,101067.31
2022-08-03T09:02:52.549Z,101079.50
2022-08-03T09:05:27.786Z,101066.22
2022-08-03T09:08:06.818Z,101076.00
2022-08-03T09:10:34.804Z,101079.53
2022-08-03T09:13:01.597Z,101067.63
2022-08-03T09:15:31.716Z,101079.56
2022-08-03T09:18:00.925Z,101065.47
2022-08-03T09:20:30.095Z,101080.34
2022-08-03T09:23:43.819Z,101089.69
2022-08-03T09:26:00.071Z,101079.63
2022-08-03T09:28:59.987Z,101081.44
2022-08-03T09:31:39.689Z,101083.09
2022-08-03T09:34:15.310Z,101085.28
2022-08-03T09:36:43.814Z,101075.13
2022-08-03T09:39:40.424Z,101083.56
2022-08-03T09:42:08.387Z,101081.19
2022-08-03T09:44:42.104Z,101080.22
2022-08-03T09:47:10.636Z,101073.25
2022-08-03T09:49:38.443Z,101074.44
2022-08-03T09:52:33.283Z,101067.06
2022-08-03T09:56:30.696Z,101079.06
2022-08-03T09:58:06.958Z,101068.66
2022-08-03T10:00:52.497Z,101063.41
2022-08-03T10:03:19.087Z,101065.34
2022-08-03T10:05:45.639Z,101069.72
2022-08-03T10:08:17.477Z,101059.47
2022-08-03T10:10:45.862Z,101064.19
2022-08-03T10:13:14.428Z,101062.06
2022-08-03T10:16:24.150Z,101069.09
2022-08-03T10:18:28.101Z,101067.56
2022-08-03T10:21:03.223Z,101063.44
2022-08-03T10:23:34.700Z,101060.16
2022-08-03T10:26:03.904Z,101062.97
2022-08-03T10:28:45.020Z,101036.41
2022-08-03T10:31:13.966Z,101046.06
2022-08-03T10:33:52.121Z,101022.22
2022-08-03T10:36:23.135Z,101047.28
2022-08-03T10:38:55.105Z,101042.22
2022-08-03T10:41:25.828Z,101042.78
2022-08-03T10:44:13.292Z,101040.53
2022-08-03T10:46:45.014Z,101037.06
2022-08-03T10:49:33.793Z,101042.97
2022-08-03T10:52:10.459Z,101027.97
2022-08-03T10:55:06.343Z,101024.53
2022-08-03T10:57:48.817Z,101028.31
2022-08-03T11:00:21.530Z,101019.88
2022-08-03T11:03:16.588Z,101019.88
2022-08-03T11:05:49.054Z,101013.63
2022-08-03T11:08:22.215Z,101015.31
2022-08-03T11:10:51.055Z,101009.50
2022-08-03T11:13:21.392Z,101002.41
2022-08-03T11:15:50.913Z,101010.31
2022-08-03T11:18:17.903Z,101007.03
2022-08-03T11:20:53.435Z,101003.84
2022-08-03T11:24:03.993Z,101010.41
2022-08-03T11:26:30.604Z,101002.84
2022-08-03T11:29:27.428Z,101003.63
2022-08-03T11:31:54.014Z,100997.97
2022-08-03T11:34:20.635Z,101018.28
2022-08-03T11:37:18.993Z,100998.47
2022-08-03T11:39:47.527Z,101005.50
2022-08-03T11:42:23.378Z,101004.19
2022-08-03T11:45:00.483Z,101009.31
2022-08-03T11:47:29.302Z,100996.25
2022-08-03T11:50:00.185Z,101001.75
2022-08-03T11:52:28.984Z,101006.38
2022-08-03T11:54:56.996Z,101002.81
2022-08-03T11:59:16.812Z,101010.41
2022-08-03T12:00:27.023Z,101006.88
2022-08-03T12:03:03.137Z,101000.34
2022-08-03T12:05:51.842Z,101002.22
2022-08-03T12:08:27.842Z,101002.69
2022-08-03T12:10:56.100Z,101002.69
2022-08-03T12:14:44.307Z,100985.25
2022-08-03T12:16:11.000Z,100983.13
2022-08-03T12:18:37.611Z,100991.78
2022-08-03T12:21:10.119Z,100981.44
2022-08-03T12:23:38.143Z,100986.84
2022-08-03T12:26:10.100Z,100991.38
2022-08-03T12:28:49.775Z,100989.63
2022-08-03T12:31:17.005Z,100987.09
2022-08-03T12:34:02.997Z,100980.22
2022-08-03T12:36:32.518Z,100982.66
2022-08-03T12:39:00.157Z,100985.84
2022-08-03T12:41:36.587Z,100986.47
2022-08-03T12:44:05.349Z,100980.41
2022-08-03T12:46:37.014Z,100981.56
2022-08-03T12:49:15.096Z,100979.22
2022-08-03T12:51:44.354Z,100972.47
2022-08-03T12:54:24.536Z,100982.22
2022-08-03T12:56:59.278Z,100982.50
2022-08-03T12:59:34.931Z,100968.69
2022-08-03T13:02:16.420Z,100979.78
2022-08-03T13:04:45.810Z,100973.28
2022-08-03T13:07:14.341Z,100976.00
2022-08-03T13:09:47.302Z,100978.94
2022-08-03T13:12:18.914Z,100964.22
2022-08-03T13:14:47.864Z,100963.25
2022-08-03T13:17:16.789Z,100962.88
2022-08-03T13:19:44.283Z,100953.53
2022-08-03T13:22:13.340Z,100962.91
2022-08-03T13:24:39.937Z,100968.75
2022-08-03T13:28:02.256Z,100954.72
2022-08-03T13:29:54.997Z,100964.59
2022-08-03T13:32:22.393Z,100968.25
2022-08-03T13:34:49.409Z,100961.63
2022-08-03T13:37:16.205Z,100958.78
2022-08-03T13:39:57.598Z,100961.63
2022-08-03T13:42:25.776Z,100952.69
2022-08-03T13:44:52.363Z,100952.84
2022-08-03T13:47:19.667Z,100948.91
2022-08-03T13:50:00.431Z,100946.44
2022-08-03T13:52:37.951Z,100949.03
2022-08-03T13:55:06.419Z,100938.47
2022-08-03T13:58:11.928Z,100947.63
2022-08-03T14:00:28.232Z,100933.75
2022-08-03T14:03:01.878Z,100930.00
2022-08-03T14:05:34.580Z,100939.38
2022-08-03T14:08:04.360Z,100924.16
2022-08-03T14:10:32.537Z,100921.44
2022-08-03T14:13:00.390Z,100919.78
2022-08-03T14:15:28.607Z,100933.63
2022-08-03T14:17:56.234Z,100920.75
2022-08-03T14:20:37.828Z,100922.00
2022-08-03T14:23:12.869Z,100922.44
2022-08-03T14:25:52.559Z,100915.75
2022-08-03T14:28:25.079Z,100921.78
2022-08-03T14:30:52.693Z,100916.44
2022-08-03T14:33:19.905Z,100913.78
2022-08-03T14:35:46.673Z,100900.16
2022-08-03T14:38:13.230Z,100907.78
2022-08-03T14:40:39.845Z,100891.50
2022-08-03T14:43:06.438Z,100902.34
2022-08-03T14:45:34.216Z,100896.84
2022-08-03T14:50:27.980Z,100895.69
2022-08-03T14:50:51.417Z,100876.22
2022-08-03T14:53:19.613Z,100883.53
2022-08-03T14:55:50.813Z,100891.41
2022-08-03T14:58:23.468Z,100894.41
2022-08-03T15:00:51.530Z,100883.88
2022-08-03T15:03:25.512Z,100881.41
2022-08-03T15:05:53.598Z,100880.13
2022-08-03T15:08:21.268Z,100873.50
2022-08-03T15:10:49.298Z,100877.84
2022-08-03T15:13:16.903Z,100869.31
2022-08-03T15:15:43.850Z,100866.38
2022-08-03T15:18:10.435Z,100882.09
2022-08-03T15:20:44.344Z,100867.72
2022-08-03T15:23:11.653Z,100863.25
2022-08-03T15:26:28.461Z,100868.78
2022-08-03T15:28:24.864Z,100869.50
2022-08-03T15:30:54.702Z,100864.16
2022-08-03T15:33:21.277Z,100868.66
2022-08-03T15:35:48.135Z,100864.94
2022-08-03T15:38:14.864Z,100860.13
2022-08-03T15:40:41.856Z,100857.06
2022-08-03T15:43:08.434Z,100856.13
2022-08-03T15:45:36.152Z,100863.22
2022-08-03T15:48:04.528Z,100860.81
2022-08-03T15:50:31.050Z,100859.69
2022-08-03T15:52:57.609Z,100856.19
2022-08-03T15:55:24.267Z,100852.97
2022-08-03T15:59:04.956Z,100866.03
2022-08-03T16:00:37.453Z,100851.06
2022-08-03T16:03:04.114Z,100847.19
2022-08-03T16:05:30.762Z,100834.50
2022-08-03T16:08:02.722Z,100852.25
2022-08-03T16:10:30.891Z,100859.38
2022-08-03T16:12:58.891Z,100847.00
2022-08-03T16:15:25.607Z,100841.00
2022-08-03T16:17:52.201Z,100810.50
2022-08-03T16:20:30.748Z,100837.84
2022-08-03T16:23:00.853Z,100819.16
2022-08-03T16:25:37.111Z,100839.06
2022-08-03T16:28:08.227Z,100814.81
2022-08-03T16:30:39.153Z,100836.34
2022-08-03T16:33:05.645Z,100833.84
2022-08-03T16:35:32.280Z,100812.81
2022-08-03T16:37:59.423Z,100792.72
2022-08-03T16:40:26.522Z,100815.53
2022-08-03T16:42:53.179Z,100830.97
2022-08-03T16:45:19.752Z,100831.56
2022-08-03T16:47:46.382Z,100820.78
2022-08-03T16:50:18.968Z,100826.00
2022-08-03T16:52:47.225Z,100826.28
2022-08-03T16:55:15.926Z,100820.63
2022-08-03T16:57:59.069Z,100824.53
2022-08-03T17:00:33.988Z,100806.75
2022-08-03T17:03:19.106Z,100822.75
2022-08-03T17:05:49.558Z,100816.06
2022-08-03T17:08:26.088Z,100821.78
2022-08-03T17:10:54.668Z,100822.63
2022-08-03T17:13:21.852Z,100814.56
2022-08-03T17:16:01.073Z,100815.63
2022-08-03T17:18:34.051Z,100816.72
2022-08-03T17:21:06.072Z,100813.22
2022-08-03T17:24:12.814Z,100819.75
2022-08-03T17:26:43.594Z,100810.28
2022-08-03T17:29:13.184Z,100816.31
2022-08-03T17:31:48.832Z,100820.38
2022-08-03T17:34:16.098Z,100819.59
2022-08-03T17:37:03.385Z,100818.53
2022-08-03T17:39:55.565Z,100810.19
2022-08-03T17:42:32.014Z,100786.13
2022-08-03T17:45:03.420Z,100814.59
2022-08-03T17:47:41.987Z,100814.56
2022-08-03T17:50:23.912Z,100799.16
2022-08-03T17:53:15.493Z,100810.53
2022-08-03T17:56:04.150Z,100822.97
2022-08-03T17:58:54.732Z,100822.13
2022-08-03T18:02:00.384Z,100823.72
2022-08-03T18:04:38.022Z,100821.25
2022-08-03T18:07:11.371Z,100831.00
2022-08-03T18:10:03.390Z,100821.25
2022-08-03T18:12:40.144Z,100831.25
2022-08-03T18:15:13.293Z,100824.16
2022-08-03T18:17:55.256Z,100819.81
2022-08-03T18:20:34.174Z,100825.50
2022-08-03T18:23:06.097Z,100801.09
2022-08-03T18:25:43.149Z,100815.72
2022-08-03T18:28:16.365Z,100821.63
2022-08-03T18:30:53.305Z,100825.66
2022-08-03T18:34:16.918Z,100825.91
2022-08-03T18:36:10.991Z,100824.00
2022-08-03T18:38:46.434Z,100829.34
2022-08-03T18:41:19.645Z,100829.81
2022-08-03T18:44:07.940Z,100823.03
2022-08-03T18:46:47.327Z,100825.94
2022-08-03T18:49:20.184Z,100823.72
2022-08-03T18:51:51.192Z,100814.72
2022-08-03T18:54:51.706Z,100819.53
2022-08-03T18:57:21.851Z,100828.34
2022-08-03T19:00:06.018Z,100824.19
2022-08-03T19:02:51.682Z,100825.91
2022-08-03T19:05:21.457Z,100827.16
2022-08-03T19:07:58.278Z,100818.34
2022-08-03T19:10:32.394Z,100820.94
2022-08-03T19:13:11.250Z,100817.88
2022-08-03T19:15:51.201Z,100822.59
2022-08-03T19:18:20.712Z,100829.09
2022-08-03T19:20:54.773Z,100836.09
2022-08-03T19:23:25.157Z,100829.75
2022-08-03T19:25:52.834Z,100830.91
2022-08-03T19:28:30.060Z,100834.34
2022-08-03T19:31:02.795Z,100833.47
2022-08-03T19:33:55.913Z,100836.81
2022-08-03T19:36:26.478Z,100837.91
2022-08-03T19:38:55.488Z,100841.06
2022-08-03T19:41:24.998Z,100848.22
2022-08-03T19:43:59.404Z,100844.66
2022-08-03T19:46:31.012Z,100840.72
2022-08-03T19:49:49.552Z,100842.34
2022-08-03T19:52:15.930Z,100839.47
2022-08-03T19:54:53.357Z,100834.47
2022-08-03T19:57:24.538Z,100841.50
2022-08-03T19:59:52.494Z,100822.16
2022-08-03T20:02:27.103Z,100835.00
2022-08-03T20:05:00.073Z,100835.22
2022-08-03T20:07:28.480Z,100833.50
2022-08-03T20:09:56.180Z,100828.94
2022-08-03T20:15:12.016Z,100846.78
2022-08-03T20:17:55.254Z,100829.25
2022-08-03T20:20:32.668Z,100843.03
2022-08-03T20:23:00.619Z,100840.56
2022-08-03T20:25:38.799Z,100842.31
2022-08-03T20:28:14.919Z,100848.69
2022-08-03T20:30:44.336Z,100839.56
2022-08-03T20:33:18.860Z,100843.31
2022-08-03T20:35:49.290Z,100826.13
2022-08-03T20:38:17.507Z,100828.19
2022-08-03T20:40:45.119Z,100830.06
2022-08-03T20:43:11.661Z,100851.81
2022-08-03T20:46:00.915Z,100843.91
2022-08-03T20:48:28.093Z,100847.50
2022-08-03T20:50:56.444Z,100846.75
2022-08-03T20:53:56.764Z,100844.97
2022-08-03T20:56:10.057Z,100842.38
2022-08-03T20:58:36.855Z,100838.97
2022-08-03T21:01:08.202Z,100848.47
2022-08-03T21:03:40.944Z,100843.78
2022-08-03T21:06:27.498Z,100839.78
2022-08-03T21:09:00.298Z,100836.81
2022-08-03T21:11:38.925Z,100824.69
2022-08-03T21:13:03.678Z,100841.66
2022-08-03T21:14:18.238Z,100836.81
2022-08-03T21:16:46.206Z,100829.72
2022-08-03T21:19:14.045Z,100838.88
2022-08-03T21:21:44.569Z,100825.59
2022-08-03T21:24:12.818Z,100830.56
2022-08-03T21:26:39.986Z,100805.88
2022-08-03T21:29:06.637Z,100826.63
2022-08-03T21:31:33.202Z,100829.59
2022-08-03T21:34:02.804Z,100818.31
2022-08-03T21:36:31.934Z,100827.00
2022-08-03T21:38:59.219Z,100825.81
2022-08-03T21:41:28.321Z,100824.81
2022-08-03T21:43:55.349Z,100824.22
2022-08-03T21:46:22.626Z,100824.06
2022-08-03T21:48:55.025Z,100831.13
2022-08-03T21:51:24.693Z,100824.00
2022-08-03T21:54:04.063Z,100814.22
2022-08-03T21:56:41.323Z,100823.47
2022-08-03T21:59:15.012Z,100815.91
2022-08-03T22:01:45.506Z,100829.72
2022-08-03T22:04:53.600Z,100806.97
2022-08-03T22:07:04.298Z,100829.53
2022-08-03T22:09:31.177Z,100827.31
2022-08-03T22:11:57.680Z,100825.28
2022-08-03T22:14:24.309Z,100821.25
2022-08-03T22:16:50.847Z,100818.41
2022-08-03T22:19:17.356Z,100828.28
2022-08-03T22:21:47.956Z,100838.53
2022-08-03T22:24:16.179Z,100828.31
2022-08-03T22:27:02.924Z,100838.00
2022-08-03T22:29:31.393Z,100827.53
2022-08-03T22:31:59.472Z,100829.97
2022-08-03T22:34:27.290Z,100833.91
2022-08-03T22:36:57.865Z,100832.53
2022-08-03T22:39:28.748Z,100831.88
2022-08-03T22:41:58.256Z,100824.97
2022-08-03T22:44:26.693Z,100832.53
2022-08-03T22:46:53.751Z,100830.09
2022-08-03T22:49:20.755Z,100841.63
2022-08-03T22:51:47.653Z,100832.56
2022-08-03T22:54:15.109Z,100840.97
2022-08-03T22:56:42.615Z,100828.09
2022-08-03T22:59:38.791Z,100827.25
2022-08-03T23:02:01.458Z,100810.63
2022-08-03T23:04:43.830Z,100827.84
2022-08-03T23:07:15.092Z,100823.34
2022-08-03T23:09:44.663Z,100822.53
2022-08-03T23:12:15.944Z,100827.25
2022-08-03T23:14:45.012Z,100830.53
2022-08-03T23:17:14.276Z,100791.16
2022-08-03T23:19:44.780Z,100819.47
2022-08-03T23:22:29.406Z,100820.91
2022-08-03T23:24:58.899Z,100821.72
2022-08-03T23:27:27.300Z,100812.91
2022-08-03T23:29:54.127Z,100827.88
2022-08-03T23:32:21.150Z,100812.09
2022-08-03T23:35:07.549Z,100801.63
2022-08-03T23:38:04.471Z,100799.56
2022-08-03T23:40:26.346Z,100811.47
2022-08-03T23:42:53.106Z,100806.53
2022-08-03T23:45:20.556Z,100809.81
2022-08-03T23:47:50.173Z,100803.03
2022-08-03T23:50:18.299Z,100805.09
2022-08-03T23:52:50.674Z,100813.53
2022-08-03T23:55:17.222Z,100813.53
2022-08-03T23:58:05.318Z,100803.06
